ADDS METAR Data INFO
IDs: Format: Raw Decoded Include TAF

Data at: 2039 UTC 20 Jul 2018

KONM 202015Z AUTO 13010G16KT 10SM CLR 37/06 A3010 RMK AO2 T03700055
KONM 201955Z AUTO 10006KT 10SM CLR 37/05 A3011 RMK AO2 LTG DSNT W T03660053
KONM 201935Z AUTO 16006KT 10SM CLR 36/05 A3012 RMK AO2 T03600053
KONM 201915Z AUTO 11006KT 090V160 10SM CLR 36/05 A3013 RMK AO2 LTG DSNT SW T03570051
KONM 201855Z AUTO 14005KT 10SM CLR 36/05 A3014 RMK AO2 T03570051
KONM 201835Z AUTO 13004KT 10SM CLR 35/06 A3014 RMK AO2 T03530056
KONM 201815Z AUTO 01003KT 10SM CLR 35/06 A3015 RMK AO2 T03470055
KONM 201755Z AUTO 08006KT 10SM CLR 34/06 A3015 RMK AO2 T03370062 10343 20220
KONM 201735Z AUTO 00000KT 10SM CLR 33/06 A3016 RMK AO2 T03330058
KONM 201715Z AUTO 00000KT 10SM CLR 33/07 A3016 RMK AO2 T03320067
KONM 201655Z AUTO 05003KT 10SM CLR 33/07 A3017 RMK AO2 T03250065
KONM 201635Z AUTO 06004KT 10SM CLR 32/07 A3017 RMK AO2 T03170073
KONM 201615Z AUTO 04006KT 10SM CLR 31/09 A3017 RMK AO2 T03140085
KONM 201555Z AUTO 36003KT 10SM CLR 30/08 A3017 RMK AO2 T03040081
KONM 201535Z AUTO 34003KT 10SM CLR 29/09 A3017 RMK AO2 T02900090
KONM 201515Z AUTO 04003KT 10SM CLR 29/09 A3017 RMK AO2 T02850087
KONM 201455Z AUTO 01004KT 10SM CLR 28/09 A3017 RMK AO2 T02770091
KONM 201435Z AUTO 00000KT 10SM CLR 27/09 A3017 RMK AO2 T02690091
KONM 201415Z AUTO 01004KT 10SM CLR 26/09 A3017 RMK AO2 T02630091
KONM 201355Z AUTO 36003KT 10SM CLR 26/09 A3017 RMK AO2 T02550088
KONM 201335Z AUTO 00000KT 10SM CLR 24/09 A3017 RMK AO2 T02440093
KONM 201315Z AUTO 00000KT 10SM CLR 23/10 A3016 RMK AO2 T02300095
KONM 201255Z AUTO 00000KT 10SM CLR 22/09 A3016 RMK AO2 T02230090
KONM 201235Z AUTO 17005KT 10SM SCT120 22/09 A3015 RMK AO2 T02230091
KONM 201215Z AUTO 23005KT 10SM SCT120 22/09 A3014 RMK AO2 T02230089
KONM 201155Z AUTO 19004KT 10SM CLR 23/09 A3013 RMK AO2 T02300085 10275 20226
KONM 201135Z AUTO 00000KT 10SM SCT120 23/09 A3013 RMK AO2 T02290088
KONM 201115Z AUTO 00000KT 10SM SCT120 24/09 A3012 RMK AO2 T02350090
KONM 201055Z AUTO 27004KT 10SM BKN110 23/09 A3012 RMK AO2 T02300092
KONM 201035Z AUTO 26004KT 10SM SCT120 23/09 A3012 RMK AO2 T02270086
KONM 201015Z AUTO 29003KT 10SM SCT120 23/09 A3012 RMK AO2 T02270087
KONM 200955Z AUTO 31003KT 10SM CLR 23/09 A3011 RMK AO2 T02320090
KONM 200935Z AUTO 00000KT 10SM CLR 23/08 A3011 RMK AO2 T02320084
KONM 200915Z AUTO 00000KT 10SM CLR 24/08 A3011 RMK AO2 T02440080
KONM 200855Z AUTO 00000KT 10SM CLR 25/09 A3010 RMK AO2 T02540085
KONM 200835Z AUTO 00000KT 10SM CLR 25/08 A3011 RMK AO2 T02530077
KONM 200815Z AUTO 00000KT 10SM CLR 25/08 A3011 RMK AO2 T02520075
KONM 200755Z AUTO 00000KT 10SM CLR 26/08 A3011 RMK AO2 T02600076
KONM 200735Z AUTO 00000KT 10SM CLR 27/08 A3011 RMK AO2 T02690077
KONM 200715Z AUTO 28003KT 10SM CLR 26/08 A3011 RMK AO2 T02640076
KONM 200655Z AUTO 34004KT 10SM CLR 27/08 A3011 RMK AO2 T02670078
KONM 200635Z AUTO 36004KT 10SM CLR 27/08 A3011 RMK AO2 T02710077
KONM 200615Z AUTO 00000KT 10SM CLR 28/07 A3011 RMK AO2 T02750072
KONM 200555Z AUTO 00000KT 10SM CLR 27/08 A3010 RMK AO2 T02720076 10337 20267 403940215
KONM 200535Z AUTO 00000KT 10SM CLR 27/07 A3009 RMK AO2 T02700072
KONM 200515Z AUTO 27003KT 10SM CLR 27/07 A3009 RMK AO2 T02690070
KONM 200455Z AUTO 27003KT 10SM CLR 27/07 A3009 RMK AO2 T02700069
KONM 200435Z AUTO 00000KT 10SM CLR 28/07 A3009 RMK AO2 T02750066
KONM 200415Z AUTO 00000KT 10SM CLR 29/07 A3009 RMK AO2 T02850068
KONM 200355Z AUTO 00000KT 10SM CLR 29/07 A3008 RMK AO2 T02860072
KONM 200335Z AUTO 00000KT 10SM CLR 29/08 A3007 RMK AO2 T02890075
KONM 200315Z AUTO 00000KT 10SM CLR 30/07 A3008 RMK AO2 T02960067
KONM 200255Z AUTO 29004KT 10SM CLR 30/07 A3007 RMK AO2 T03000066
KONM 200235Z AUTO 00000KT 10SM CLR 30/07 A3007 RMK AO2 T03000070
KONM 200215Z AUTO 04003KT 10SM CLR 31/07 A3007 RMK AO2 T03060072
KONM 200155Z AUTO 30008KT 10SM CLR 32/07 A3005 RMK AO2 T03180066
KONM 200135Z AUTO 31008KT 10SM CLR 33/07 A3005 RMK AO2 T03260067
KONM 200115Z AUTO 29010KT 10SM CLR 33/07 A3005 RMK AO2 LTG DSNT SW T03270068
KONM 200055Z AUTO 27008KT 10SM CLR 33/06 A3006 RMK AO2 T03330062
KONM 200035Z AUTO 22013KT 10SM CLR 33/07 A3005 RMK AO2 LTG DSNT W T03320066
KONM 200015Z AUTO 19011G21KT 10SM CLR 33/07 A3005 RMK AO2 LTG DSNT S T03300065
KONM 192355Z AUTO 16016G25KT 10SM CLR 34/08 A3005 RMK AO2 LTG DSNT S AND W T03360077 10394 20336
KONM 192335Z AUTO 15020G27KT 10SM CLR 36/06 A3005 RMK AO2 LTG DSNT S T03550055
KONM 192315Z AUTO 14023G30KT 10SM CLR 35/05 A3004 RMK AO2 T03540051
KONM 192255Z AUTO 13019G23KT 10SM CLR 35/06 A3006 RMK AO2 LTG DSNT SE AND S T03500063
KONM 192235Z AUTO 11017G25KT 10SM CLR 36/06 A3005 RMK AO2 LTG DSNT E THRU S T03620055
KONM 192215Z AUTO 10014G28KT 10SM CLR 39/05 A3005 RMK AO2 LTG DSNT E T03880047
KONM 192155Z AUTO 06004KT 10SM CLR 39/03 A3004 RMK AO2 LTG DSNT ALQS T03910033
KONM 192135Z AUTO 00000KT 10SM SCT120 38/03 A3005 RMK AO2 LTG DSNT NE AND SW T03760033
KONM 192115Z AUTO 00000KT 10SM CLR 38/04 A3006 RMK AO2 LTG DSNT SE AND SW T03820036
KONM 192055Z AUTO 06003KT 10SM CLR 37/04 A3006 RMK AO2 LTG DSNT S AND SW T03730035
KONM 192035Z AUTO 34005KT 10SM CLR 38/02 A3007 RMK AO2 T03750023
KONM 192015Z AUTO 07007KT 10SM CLR 37/04 A3008 RMK AO2 LTG DSNT SW T03690035
KONM 191955Z AUTO 36005KT 10SM CLR 37/04 A3009 RMK AO2 LTG DSNT SW T03700039
KONM 191935Z AUTO 01005KT 10SM CLR 36/05 A3010 RMK AO2 T03640046
KONM 191915Z AUTO 06005KT 10SM CLR 36/05 A3010 RMK AO2 LTG DSNT SE T03590051
KONM 191855Z AUTO 07003KT 10SM CLR 36/05 A3012 RMK AO2 LTG DSNT W T03550050
KONM 191835Z AUTO 03006KT 10SM CLR 35/05 A3013 RMK AO2 T03540052
KONM 191815Z AUTO 07005KT 10SM CLR 35/07 A3014 RMK AO2 T03460065
KONM 191755Z AUTO 02007KT 10SM CLR 35/07 A3015 RMK AO2 T03460065 10346 20215
KONM 191735Z AUTO 02005KT 10SM CLR 34/07 A3015 RMK AO2 T03390071
KONM 191715Z AUTO 04004KT 10SM CLR 33/08 A3016 RMK AO2 T03340080
KONM 191655Z AUTO 03003KT 10SM CLR 33/08 A3016 RMK AO2 T03280080
KONM 191635Z AUTO 01005KT 10SM CLR 32/09 A3016 RMK AO2 T03160088
KONM 191615Z AUTO 03004KT 10SM CLR 31/09 A3016 RMK AO2 T03070089
KONM 191555Z AUTO 04004KT 10SM CLR 30/09 A3017 RMK AO2 T03010087
KONM 191535Z AUTO 04003KT 10SM CLR 30/10 A3017 RMK AO2 T02950098
KONM 191515Z AUTO 00000KT 10SM CLR 28/09 A3017 RMK AO2 T02810094
KONM 191455Z AUTO 06003KT 10SM CLR 27/09 A3017 RMK AO2 T02730091
KONM 191435Z AUTO 04003KT 10SM CLR 27/09 A3017 RMK AO2 T02670091
KONM 191415Z AUTO 00000KT 10SM CLR 26/09 A3017 RMK AO2 T02590090
KONM 191355Z AUTO 00000KT 10SM CLR 25/09 A3017 RMK AO2 T02520094
KONM 191335Z AUTO 00000KT 10SM CLR 24/10 A3017 RMK AO2 T02420095
KONM 191315Z AUTO 00000KT 10SM CLR 24/10 A3016 RMK AO2 T02350097
KONM 191255Z AUTO 00000KT 10SM CLR 23/10 A3015 RMK AO2 T02260098
KONM 191235Z AUTO 33007KT 10SM CLR 22/10 A3014 RMK AO2 T02150098
KONM 191215Z AUTO 00000KT 10SM CLR 22/10 A3014 RMK AO2 T02200098
KONM 191155Z AUTO 33003KT 10SM CLR 22/10 A3013 RMK AO2 T02150098 10270 20215
KONM 191135Z AUTO 32003KT 10SM CLR 22/10 A3013 RMK AO2 T02210096
KONM 191115Z AUTO 32004KT 10SM CLR 22/10 A3013 RMK AO2 T02210096
KONM 191055Z AUTO 35004KT 10SM CLR 22/10 A3012 RMK AO2 T02240096
KONM 191035Z AUTO 33003KT 10SM CLR 23/09 A3012 RMK AO2 T02280092
KONM 191015Z AUTO 00000KT 10SM CLR 23/09 A3012 RMK AO2 T02260088
KONM 190955Z AUTO 00000KT 10SM CLR 23/09 A3011 RMK AO2 T02250087
KONM 190935Z AUTO 29003KT 10SM CLR 23/09 A3011 RMK AO2 T02270088
KONM 190915Z AUTO 33006KT 10SM CLR 23/09 A3011 RMK AO2 T02260089
KONM 190855Z AUTO 29004KT 10SM CLR 23/09 A3011 RMK AO2 T02290087